createdAt,value
2019-01-24T00:02:14.861Z,42.23
2019-01-24T00:05:18.476Z,40.90
2019-01-24T00:08:22.022Z,39.70
2019-01-24T00:11:25.576Z,39.43
2019-01-24T00:14:29.160Z,39.37
2019-01-24T00:17:32.697Z,37.43
2019-01-24T00:20:36.333Z,37.63
2019-01-24T00:23:39.883Z,38.17
2019-01-24T00:26:43.451Z,38.03
2019-01-24T00:29:47.012Z,36.87
2019-01-24T00:32:50.567Z,36.63
2019-01-24T00:35:54.469Z,36.60
2019-01-24T00:38:58.033Z,35.53
2019-01-24T00:42:01.601Z,35.33
2019-01-24T00:45:06.861Z,35.23
2019-01-24T00:48:10.730Z,34.00
2019-01-24T00:51:14.292Z,33.03
2019-01-24T00:54:17.849Z,32.53
2019-01-24T00:57:21.731Z,33.50
2019-01-24T01:00:26.490Z,33.03
2019-01-24T01:03:30.196Z,32.93
2019-01-24T01:06:34.103Z,31.00
2019-01-24T01:09:37.722Z,31.37
2019-01-24T01:12:41.459Z,30.83
2019-01-24T01:15:45.020Z,30.60
2019-01-24T01:18:48.925Z,30.30
2019-01-24T01:21:52.457Z,29.90
2019-01-24T01:24:56.013Z,30.13
2019-01-24T01:27:59.674Z,30.97
2019-01-24T01:31:03.512Z,29.97
2019-01-24T01:34:07.068Z,28.97
2019-01-24T01:37:10.714Z,28.73
2019-01-24T01:40:15.213Z,28.77
2019-01-24T01:43:18.782Z,28.13
2019-01-24T01:46:22.353Z,28.30
2019-01-24T01:49:25.907Z,27.60
2019-01-24T01:52:29.859Z,27.40
2019-01-24T01:55:33.912Z,26.47
2019-01-24T01:58:37.483Z,27.10
2019-01-24T02:01:41.430Z,26.93
2019-01-24T02:04:44.972Z,26.97
2019-01-24T02:07:48.606Z,25.80
2019-01-24T02:10:52.148Z,25.63
2019-01-24T02:13:55.715Z,24.33
2019-01-24T02:16:59.257Z,25.90
2019-01-24T02:20:02.798Z,25.57
2019-01-24T02:23:07.166Z,25.67
2019-01-24T02:26:10.713Z,24.77
2019-01-24T02:29:14.579Z,25.20
2019-01-24T02:32:18.130Z,26.43
2019-01-24T02:35:21.995Z,24.17
2019-01-24T02:38:25.598Z,25.07
2019-01-24T02:41:29.478Z,24.87
2019-01-24T02:44:33.028Z,23.90
2019-01-24T02:47:36.840Z,24.90
2019-01-24T02:50:40.618Z,23.90
2019-01-24T02:53:44.180Z,23.57
2019-01-24T02:56:47.747Z,23.90
2019-01-24T02:59:51.305Z,24.03
2019-01-24T03:02:54.868Z,24.17
2019-01-24T03:05:58.422Z,22.60
2019-01-24T03:09:01.978Z,23.70
2019-01-24T03:12:05.715Z,22.83
2019-01-24T03:15:11.131Z,23.13
2019-01-24T03:18:14.755Z,22.43
2019-01-24T03:21:18.309Z,22.00
2019-01-24T03:24:21.867Z,22.83
2019-01-24T03:27:25.428Z,22.43
2019-01-24T03:30:29.229Z,22.33
2019-01-24T03:33:32.798Z,20.77
2019-01-24T03:36:36.344Z,22.53
2019-01-24T03:39:39.924Z,22.40
2019-01-24T03:42:43.574Z,20.87
2019-01-24T03:45:47.115Z,20.87
2019-01-24T03:48:50.680Z,20.70
2019-01-24T03:51:54.297Z,21.07
2019-01-24T03:54:58.273Z,20.33
2019-01-24T03:58:01.832Z,21.77
2019-01-24T04:01:05.466Z,20.23
2019-01-24T04:04:09.025Z,21.30
2019-01-24T04:07:12.579Z,20.00
2019-01-24T04:10:17.555Z,21.73
2019-01-24T04:13:21.164Z,20.43
2019-01-24T04:16:25.031Z,20.77
2019-01-24T04:19:28.932Z,20.57
2019-01-24T04:22:32.487Z,19.77
2019-01-24T04:25:36.355Z,19.70
2019-01-24T04:28:39.919Z,20.03
2019-01-24T04:31:43.467Z,20.00
2019-01-24T04:34:47.020Z,19.23
2019-01-24T04:37:50.644Z,19.80
2019-01-24T04:40:54.214Z,19.53
2019-01-24T04:43:58.062Z,20.80
2019-01-24T04:47:01.605Z,20.10
2019-01-24T04:50:05.944Z,18.93
2019-01-24T04:53:09.823Z,19.20
2019-01-24T04:56:13.387Z,19.97
2019-01-24T04:59:17.212Z,19.43
2019-01-24T05:02:20.762Z,18.77
2019-01-24T05:05:27.864Z,19.03
2019-01-24T05:08:29.606Z,19.87
2019-01-24T05:11:33.171Z,18.17
2019-01-24T05:14:36.974Z,20.03
2019-01-24T05:17:40.521Z,37.20
2019-01-24T05:20:44.407Z,35.53
2019-01-24T05:23:47.997Z,38.80
2019-01-24T05:26:51.556Z,37.10
2019-01-24T05:29:55.529Z,34.10
2019-01-24T05:32:59.158Z,30.73
2019-01-24T05:36:02.730Z,32.47
2019-01-24T05:39:08.015Z,34.13
2019-01-24T05:42:11.568Z,69.50
2019-01-24T05:45:15.317Z,85.70
2019-01-24T05:48:19.199Z,86.13
2019-01-24T05:51:22.822Z,81.53
2019-01-24T05:54:26.697Z,80.80
2019-01-24T05:57:30.523Z,71.90
2019-01-24T06:00:42.745Z,62.43
2019-01-24T06:03:46.360Z,54.07
2019-01-24T06:06:50.234Z,49.37
2019-01-24T06:09:53.789Z,48.63
2019-01-24T06:12:57.333Z,46.07
2019-01-24T06:16:00.890Z,46.00
2019-01-24T06:19:04.509Z,43.47
2019-01-24T06:22:08.062Z,43.40
2019-01-24T06:25:11.822Z,41.17
2019-01-24T06:28:15.363Z,41.60
2019-01-24T06:31:19.182Z,40.53
2019-01-24T06:34:22.800Z,40.47
2019-01-24T06:37:26.350Z,39.13
2019-01-24T06:40:30.192Z,37.27
2019-01-24T06:43:33.740Z,37.60
2019-01-24T06:46:37.649Z,36.07
2019-01-24T06:49:41.193Z,36.50
2019-01-24T06:52:44.827Z,35.17
2019-01-24T06:55:48.386Z,35.13
2019-01-24T06:58:51.930Z,34.67
2019-01-24T07:01:55.487Z,34.20
2019-01-24T07:04:59.036Z,34.27
2019-01-24T07:08:02.923Z,32.00
2019-01-24T07:11:06.491Z,32.33
2019-01-24T07:14:10.043Z,32.40
2019-01-24T07:17:13.619Z,31.63
2019-01-24T07:20:18.067Z,30.97
2019-01-24T07:23:21.632Z,31.83
2019-01-24T07:26:25.252Z,30.87
2019-01-24T07:29:28.801Z,31.17
2019-01-24T07:32:32.601Z,29.67
2019-01-24T07:35:36.245Z,29.63
2019-01-24T07:38:39.826Z,29.73
2019-01-24T07:41:43.621Z,28.77
2019-01-24T07:44:47.169Z,28.57
2019-01-24T07:47:50.727Z,28.43
2019-01-24T07:50:54.271Z,27.73
2019-01-24T07:53:57.848Z,27.50
2019-01-24T07:57:01.744Z,27.47
2019-01-24T08:00:08.651Z,26.97
2019-01-24T08:03:12.212Z,27.00
2019-01-24T08:06:15.758Z,26.27
2019-01-24T08:09:19.332Z,25.67
2019-01-24T08:12:22.892Z,26.57
2019-01-24T08:15:26.466Z,26.73
2019-01-24T08:18:30.349Z,25.13
2019-01-24T08:21:34.534Z,25.27
2019-01-24T08:24:38.376Z,26.10
2019-01-24T08:27:42.261Z,25.90
2019-01-24T08:30:45.824Z,24.97
2019-01-24T08:33:49.623Z,25.07
2019-01-24T08:36:53.523Z,24.57
2019-01-24T08:39:57.084Z,23.70
2019-01-24T08:43:00.660Z,23.33
2019-01-24T08:46:04.278Z,23.93
2019-01-24T08:49:07.844Z,22.60
2019-01-24T08:52:11.395Z,22.70
2019-01-24T08:55:17.943Z,23.83
2019-01-24T08:58:21.511Z,23.90
2019-01-24T09:01:25.084Z,23.37
2019-01-24T09:04:28.660Z,22.33
2019-01-24T09:07:32.220Z,22.70
2019-01-24T09:10:37.983Z,22.17
2019-01-24T09:13:41.550Z,21.97
2019-01-24T09:16:45.188Z,23.10
2019-01-24T09:19:48.744Z,22.40
2019-01-24T09:22:55.472Z,21.90
2019-01-24T09:25:57.879Z,21.43
2019-01-24T09:29:01.475Z,22.23
2019-01-24T09:32:05.331Z,21.20
2019-01-24T09:35:09.985Z,21.40
2019-01-24T09:38:13.568Z,21.07
2019-01-24T09:41:17.133Z,21.03
2019-01-24T09:44:20.677Z,20.90
2019-01-24T09:47:24.335Z,21.40
2019-01-24T09:50:27.967Z,21.53
2019-01-24T09:53:31.541Z,21.87
2019-01-24T09:56:35.084Z,21.63
2019-01-24T09:59:39.240Z,20.17
2019-01-24T10:02:42.804Z,20.03
2019-01-24T10:05:46.364Z,20.57
2019-01-24T10:08:49.924Z,21.23
2019-01-24T10:11:53.572Z,20.17
2019-01-24T10:14:57.760Z,20.43
2019-01-24T10:18:01.312Z,20.17
2019-01-24T10:21:04.987Z,20.50
2019-01-24T10:24:08.553Z,19.37
2019-01-24T10:27:12.124Z,20.27
2019-01-24T10:30:17.618Z,20.00
2019-01-24T10:33:21.194Z,19.80
2019-01-24T10:36:24.737Z,20.03
2019-01-24T10:39:28.328Z,19.13
2019-01-24T10:42:31.875Z,20.27
2019-01-24T10:45:35.432Z,20.00
2019-01-24T10:48:39.066Z,19.77
2019-01-24T10:51:42.609Z,19.17
2019-01-24T10:54:46.203Z,19.70
2019-01-24T10:57:50.396Z,20.03
2019-01-24T11:00:54.259Z,18.83
2019-01-24T11:03:57.828Z,19.03
2019-01-24T11:07:01.372Z,19.17
2019-01-24T11:10:05.947Z,18.33
2019-01-24T11:13:09.575Z,19.37
2019-01-24T11:16:13.140Z,19.27
2019-01-24T11:19:16.699Z,18.80
2019-01-24T11:22:20.515Z,18.47
2019-01-24T11:25:24.454Z,19.30
2019-01-24T11:28:28.327Z,19.60
2019-01-24T11:31:31.880Z,19.20
2019-01-24T11:34:35.440Z,18.97
2019-01-24T11:37:38.993Z,18.67
2019-01-24T11:40:42.568Z,18.23
2019-01-24T11:43:46.371Z,19.20
2019-01-24T11:46:49.923Z,18.77
2019-01-24T11:49:53.540Z,17.97
2019-01-24T11:52:57.172Z,19.20
2019-01-24T11:56:00.724Z,18.13
2019-01-24T11:59:04.353Z,18.80
2019-01-24T12:02:08.209Z,17.73
2019-01-24T12:05:11.834Z,18.60
2019-01-24T12:08:15.403Z,19.03
2019-01-24T12:11:18.955Z,18.03
2019-01-24T12:14:22.504Z,18.40
2019-01-24T12:17:26.055Z,19.70
2019-01-24T12:20:29.936Z,18.03
2019-01-24T12:23:33.571Z,18.73
2019-01-24T12:26:37.120Z,18.43
2019-01-24T12:29:40.666Z,18.03
2019-01-24T12:32:44.369Z,18.63
2019-01-24T12:35:47.994Z,17.60
2019-01-24T12:38:51.532Z,17.93
2019-01-24T12:41:55.093Z,18.17
2019-01-24T12:44:58.642Z,18.50
2019-01-24T12:48:02.768Z,18.03
2019-01-24T12:51:06.396Z,17.90
2019-01-24T12:54:09.962Z,17.83
2019-01-24T12:57:13.798Z,17.80
2019-01-24T13:00:20.165Z,17.13
2019-01-24T13:03:23.804Z,17.57
2019-01-24T13:06:27.659Z,17.07
2019-01-24T13:09:31.280Z,17.40
2019-01-24T13:12:35.064Z,18.07
2019-01-24T13:15:38.697Z,18.07
2019-01-24T13:18:42.268Z,17.77
2019-01-24T13:21:45.823Z,17.80
2019-01-24T13:24:49.372Z,17.20
2019-01-24T13:27:53.031Z,17.67
2019-01-24T13:30:56.847Z,18.47
2019-01-24T13:34:00.407Z,16.73
2019-01-24T13:37:03.963Z,18.40
2019-01-24T13:40:10.057Z,16.93
2019-01-24T13:43:13.620Z,17.83
2019-01-24T13:46:17.169Z,17.03
2019-01-24T13:49:20.736Z,17.40
2019-01-24T13:52:24.292Z,16.67
2019-01-24T13:55:27.841Z,16.80
2019-01-24T13:58:31.403Z,16.63
2019-01-24T14:01:34.953Z,16.77
2019-01-24T14:04:42.959Z,16.70
2019-01-24T14:07:46.698Z,17.03
2019-01-24T14:10:50.253Z,17.67
2019-01-24T14:13:54.124Z,17.10
2019-01-24T14:16:57.722Z,17.37
2019-01-24T14:20:01.237Z,16.97
2019-01-24T14:23:05.443Z,17.43
2019-01-24T14:26:09.172Z,16.47
2019-01-24T14:29:12.811Z,17.40
2019-01-24T14:32:16.361Z,17.30
2019-01-24T14:35:20.372Z,17.33
2019-01-24T14:38:23.999Z,17.13
2019-01-24T14:41:27.559Z,15.60
2019-01-24T14:44:31.121Z,17.30
2019-01-24T14:47:34.670Z,16.63
2019-01-24T14:50:38.514Z,16.70
2019-01-24T14:53:42.456Z,17.40
2019-01-24T14:56:46.342Z,16.50
2019-01-24T14:59:50.007Z,16.77
2019-01-24T15:02:53.553Z,17.10
2019-01-24T15:05:57.112Z,16.70
2019-01-24T15:09:00.695Z,16.70
2019-01-24T15:12:04.303Z,16.60
2019-01-24T15:15:08.734Z,16.80
2019-01-24T15:18:12.279Z,16.10
2019-01-24T15:21:15.826Z,17.37
2019-01-24T15:24:19.393Z,16.77
2019-01-24T15:27:22.959Z,16.07
2019-01-24T15:30:26.525Z,16.97
2019-01-24T15:33:30.072Z,16.37
2019-01-24T15:36:33.916Z,16.60
2019-01-24T15:39:37.478Z,16.50
2019-01-24T15:42:41.034Z,17.00
2019-01-24T15:45:44.660Z,16.17
2019-01-24T15:48:48.199Z,16.27
2019-01-24T15:51:51.759Z,16.60
2019-01-24T15:54:55.332Z,16.87
2019-01-24T15:57:59.145Z,16.40
2019-01-24T16:01:02.697Z,16.53
2019-01-24T16:04:06.291Z,16.10
2019-01-24T16:07:09.849Z,16.63
2019-01-24T16:10:14.931Z,16.07
2019-01-24T16:13:18.494Z,17.07
2019-01-24T16:16:22.041Z,16.20
2019-01-24T16:19:25.644Z,16.13
2019-01-24T16:22:29.201Z,16.20
2019-01-24T16:25:33.086Z,15.70
2019-01-24T16:28:36.899Z,16.20
2019-01-24T16:31:40.537Z,16.13
2019-01-24T16:34:44.337Z,15.60
2019-01-24T16:37:47.884Z,15.60
2019-01-24T16:40:51.449Z,16.47
2019-01-24T16:43:55.008Z,35.13
2019-01-24T16:46:58.884Z,28.80
2019-01-24T16:50:02.442Z,27.80
2019-01-24T16:53:06.277Z,58.50
2019-01-24T16:56:10.088Z,41.73
2019-01-24T16:59:13.631Z,37.17
2019-01-24T17:02:17.175Z,37.07
2019-01-24T17:05:20.723Z,33.73
2019-01-24T17:08:24.281Z,33.10
2019-01-24T17:11:27.843Z,32.07
2019-01-24T17:14:31.400Z,31.67
2019-01-24T17:17:35.039Z,31.90
2019-01-24T17:20:38.596Z,30.67
2019-01-24T17:23:42.238Z,30.83
2019-01-24T17:26:45.804Z,29.17
2019-01-24T17:29:49.395Z,30.13
2019-01-24T17:32:53.116Z,28.27
2019-01-24T17:35:56.653Z,28.57
2019-01-24T17:39:00.205Z,28.17
2019-01-24T17:42:03.834Z,27.73
2019-01-24T17:45:09.564Z,26.37
2019-01-24T17:48:13.405Z,26.70
2019-01-24T17:51:16.953Z,26.20
2019-01-24T17:54:20.498Z,25.67
2019-01-24T17:57:24.052Z,25.73
2019-01-24T18:00:29.960Z,24.40
2019-01-24T18:03:33.511Z,25.37
2019-01-24T18:06:37.057Z,24.80
2019-01-24T18:09:40.607Z,24.27
2019-01-24T18:12:44.793Z,24.03
2019-01-24T18:15:48.420Z,23.20
2019-01-24T18:18:51.976Z,23.37
2019-01-24T18:21:55.532Z,23.27
2019-01-24T18:24:59.080Z,23.30
2019-01-24T18:28:02.637Z,22.87
2019-01-24T18:31:06.365Z,22.20
2019-01-24T18:34:10.256Z,22.33
2019-01-24T18:37:13.800Z,22.97
2019-01-24T18:40:19.224Z,22.40
2019-01-24T18:43:25.068Z,21.47
2019-01-24T18:46:28.642Z,21.23
2019-01-24T18:49:32.196Z,20.67
2019-01-24T18:52:35.753Z,20.87
2019-01-24T18:55:39.386Z,21.53
2019-01-24T18:58:42.941Z,20.93
2019-01-24T19:01:46.483Z,20.23
2019-01-24T19:04:50.051Z,20.87
2019-01-24T19:07:53.758Z,20.20
2019-01-24T19:10:57.384Z,19.80
2019-01-24T19:14:01.201Z,20.17
2019-01-24T19:17:04.943Z,20.50
2019-01-24T19:20:11.046Z,18.90
2019-01-24T19:23:14.677Z,19.00
2019-01-24T19:26:18.232Z,19.77
2019-01-24T19:29:22.088Z,18.97
2019-01-24T19:32:25.644Z,18.40
2019-01-24T19:35:29.215Z,19.20
2019-01-24T19:38:32.803Z,19.10
2019-01-24T19:41:37.074Z,18.83
2019-01-24T19:44:40.628Z,18.93
2019-01-24T19:47:44.579Z,18.23
2019-01-24T19:50:48.430Z,18.23
2019-01-24T19:53:52.019Z,17.97
2019-01-24T19:56:55.528Z,17.87
2019-01-24T19:59:59.076Z,18.60
2019-01-24T20:03:02.937Z,18.17
2019-01-24T20:06:06.827Z,17.43
2019-01-24T20:09:10.558Z,17.70
2019-01-24T20:12:15.458Z,17.70
2019-01-24T20:15:24.164Z,16.67
2019-01-24T20:18:27.788Z,16.57
2019-01-24T20:21:31.354Z,16.40
2019-01-24T20:24:34.904Z,17.20
2019-01-24T20:27:38.692Z,17.37
2019-01-24T20:30:42.250Z,16.53
2019-01-24T20:33:45.804Z,16.53
2019-01-24T20:36:49.366Z,16.80
2019-01-24T20:39:52.998Z,16.60
2019-01-24T20:42:56.633Z,15.80
2019-01-24T20:46:00.196Z,16.37
2019-01-24T20:49:03.770Z,16.33
2019-01-24T20:52:07.340Z,16.00
2019-01-24T20:55:12.966Z,16.97
2019-01-24T20:58:16.608Z,15.90
2019-01-24T21:01:20.205Z,16.77
2019-01-24T21:04:23.751Z,15.83
2019-01-24T21:07:27.311Z,15.87
2019-01-24T21:10:31.456Z,15.77
2019-01-24T21:13:35.019Z,15.67
2019-01-24T21:16:38.578Z,15.10
2019-01-24T21:19:42.202Z,16.07
2019-01-24T21:22:46.259Z,14.93
2019-01-24T21:25:49.810Z,15.17
2019-01-24T21:28:53.361Z,15.03
2019-01-24T21:31:56.924Z,23.27
2019-01-24T21:35:00.493Z,43.27
2019-01-24T21:38:05.220Z,74.43
2019-01-24T21:41:08.779Z,60.33
2019-01-24T21:44:12.333Z,51.70
2019-01-24T21:47:15.892Z,50.70
2019-01-24T21:50:20.438Z,48.87
2019-01-24T21:53:24.001Z,46.30
2019-01-24T21:56:27.679Z,44.97
2019-01-24T21:59:31.236Z,41.77
2019-01-24T22:02:34.824Z,38.97
2019-01-24T22:05:38.462Z,38.40
2019-01-24T22:08:42.020Z,36.87
2019-01-24T22:11:45.632Z,36.43
2019-01-24T22:14:49.183Z,36.47
2019-01-24T22:17:52.748Z,36.03
2019-01-24T22:20:56.301Z,37.23
2019-01-24T22:23:59.856Z,28.27
2019-01-24T22:27:03.467Z,45.13
2019-01-24T22:30:10.512Z,43.23
2019-01-24T22:33:14.144Z,65.53
2019-01-24T22:36:18.179Z,58.87
2019-01-24T22:39:21.744Z,60.00
2019-01-24T22:42:25.382Z,58.37
2019-01-24T22:45:29.066Z,58.70
2019-01-24T22:48:32.633Z,55.87
2019-01-24T22:51:36.182Z,57.27
2019-01-24T22:54:39.751Z,55.83
2019-01-24T22:57:43.300Z,56.40
2019-01-24T23:01:01.949Z,50.63
2019-01-24T23:04:11.688Z,50.87
2019-01-24T23:07:15.324Z,47.60
2019-01-24T23:10:18.960Z,45.53
2019-01-24T23:13:22.525Z,43.43
2019-01-24T23:16:26.081Z,42.13
2019-01-24T23:19:29.652Z,39.17
2019-01-24T23:22:33.445Z,38.83
2019-01-24T23:25:37.006Z,37.53
2019-01-24T23:28:40.573Z,37.97
2019-01-24T23:31:44.205Z,36.43
2019-01-24T23:34:47.772Z,34.73
2019-01-24T23:37:52.424Z,34.27
2019-01-24T23:40:56.326Z,33.37
2019-01-24T23:43:59.890Z,33.13
2019-01-24T23:47:03.470Z,32.97
2019-01-24T23:50:07.433Z,32.37
2019-01-24T23:53:10.983Z,31.37
2019-01-24T23:56:15.207Z,30.40
2019-01-24T23:59:18.773Z,30.70
